Time;durP1;ratioP1;P1;durP2;ratioP2;P2;SDS_P1;SDS_P2;PMS_P1;PMS_P2;Temp;Humidity;BMP_temperature;BMP_pressure;BME280_temperature;BME280_humidity;BME280_pressure;Samples;Min_cycle;Max_cycle;Signal;HPM_P1;HPM_P2
2023/03/15 00:00:47;;;;;;;5.30;2.25;;;;;;;;;;5009988;28;20048;-24
2023/03/15 00:03:15;;;;;;;4.25;2.03;;;;;;;;;;5004072;28;20053;-25
2023/03/15 00:05:43;;;;;;;7.78;2.35;;;;;;;;;;4998855;28;20026;-25
2023/03/15 00:08:11;;;;;;;5.03;2.25;;;;;;;;;;4998206;28;20488;-28
2023/03/15 00:10:44;;;;;;;4.57;2.00;;;;;;;;;;4992727;28;20034;-25
2023/03/15 00:13:12;;;;;;;7.53;1.60;;;;;;;;;;4992933;28;20022;-26
2023/03/15 00:15:49;;;;;;;2.67;1.38;;;;;;;;;;4992707;28;20054;-27
2023/03/15 00:18:17;;;;;;;4.60;1.67;;;;;;;;;;4992173;28;20031;-27
2023/03/15 00:20:46;;;;;;;5.22;1.30;;;;;;;;;;5008634;28;20033;-25
2023/03/15 00:23:13;;;;;;;6.10;1.23;;;;;;;;;;5012013;28;20045;-25
2023/03/15 00:25:40;;;;;;;2.33;0.98;;;;;;;;;;5006426;28;20064;-25
2023/03/15 00:28:07;;;;;;;2.15;1.02;;;;;;;;;;5000401;28;20037;-25
2023/03/15 00:30:34;;;;;;;2.05;1.00;;;;;;;;;;5001080;28;20045;-26
2023/03/15 00:33:07;;;;;;;2.92;0.98;;;;;;;;;;4993353;28;20116;-28
2023/03/15 00:35:38;;;;;;;1.90;1.00;;;;;;;;;;4993211;28;20133;-29
2023/03/15 00:38:05;;;;;;;2.92;1.08;;;;;;;;;;4992736;28;20452;-26
2023/03/15 00:40:32;;;;;;;5.53;1.10;;;;;;;;;;5009826;28;20068;-28
2023/03/15 00:42:59;;;;;;;3.72;1.20;;;;;;;;;;5002109;28;20073;-29
2023/03/15 00:45:26;;;;;;;3.92;1.30;;;;;;;;;;5012314;28;20080;-28
2023/03/15 00:47:54;;;;;;;3.78;1.30;;;;;;;;;;5002564;28;20101;-25
2023/03/15 00:50:22;;;;;;;9.13;1.70;;;;;;;;;;4992956;28;20022;-25
2023/03/15 00:52:50;;;;;;;6.13;1.65;;;;;;;;;;4993314;28;20034;-28
2023/03/15 00:55:18;;;;;;;14.27;2.40;;;;;;;;;;4997817;28;20591;-29
2023/03/15 00:57:46;;;;;;;23.40;5.85;;;;;;;;;;5007985;28;20040;-27
2023/03/15 01:00:14;;;;;;;52.55;11.95;;;;;;;;;;5012153;28;20599;-25
2023/03/15 01:02:41;;;;;;;37.38;9.27;;;;;;;;;;5011615;28;20057;-25
2023/03/15 01:05:09;;;;;;;47.88;9.95;;;;;;;;;;5011727;28;20032;-29
2023/03/15 01:07:36;;;;;;;28.23;7.00;;;;;;;;;;5009725;28;20562;-30
2023/03/15 01:10:04;;;;;;;23.33;5.72;;;;;;;;;;5010724;28;20502;-28
2023/03/15 01:12:32;;;;;;;26.52;5.47;;;;;;;;;;5010901;28;20069;-28
2023/03/15 01:15:00;;;;;;;16.58;4.97;;;;;;;;;;5010585;28;20569;-28
2023/03/15 01:17:27;;;;;;;14.75;3.78;;;;;;;;;;5010591;28;20029;-25
2023/03/15 01:19:54;;;;;;;10.85;3.60;;;;;;;;;;5011225;28;20427;-28
2023/03/15 01:22:21;;;;;;;9.75;3.60;;;;;;;;;;5011954;28;20037;-27
2023/03/15 01:24:48;;;;;;;12.48;3.45;;;;;;;;;;5011711;28;20431;-25
2023/03/15 01:27:15;;;;;;;12.40;3.47;;;;;;;;;;5011057;28;20030;-25
2023/03/15 01:29:42;;;;;;;13.45;3.20;;;;;;;;;;5009928;28;20041;-28
2023/03/15 01:32:09;;;;;;;9.80;3.45;;;;;;;;;;5011119;28;20136;-28
2023/03/15 01:34:36;;;;;;;14.30;3.45;;;;;;;;;;5011803;28;20049;-25
2023/03/15 01:37:03;;;;;;;18.30;3.95;;;;;;;;;;5010213;28;20055;-28
2023/03/15 01:39:31;;;;;;;23.48;5.03;;;;;;;;;;5010228;28;20112;-25
2023/03/15 01:41:58;;;;;;;14.35;4.60;;;;;;;;;;5010457;28;20022;-29
2023/03/15 01:44:44;;;;;;;16.00;5.20;;;;;;;;;;5010177;28;20055;-27
2023/03/15 01:47:12;;;;;;;21.58;6.35;;;;;;;;;;5010266;28;20119;-25
2023/03/15 01:49:39;;;;;;;22.08;5.82;;;;;;;;;;5010248;28;20180;-29
2023/03/15 01:52:12;;;;;;;18.95;5.50;;;;;;;;;;5009554;28;20124;-25
2023/03/15 01:54:45;;;;;;;18.25;5.10;;;;;;;;;;5011387;28;20538;-28
2023/03/15 01:57:35;;;;;;;15.65;5.40;;;;;;;;;;5011150;28;20152;-26
2023/03/15 02:00:09;;;;;;;21.52;4.95;;;;;;;;;;4996077;28;20040;-26
2023/03/15 02:02:36;;;;;;;14.10;4.55;;;;;;;;;;5031514;28;20112;-25
2023/03/15 02:05:08;;;;;;;16.20;4.68;;;;;;;;;;5031468;28;20109;-25
2023/03/15 02:07:36;;;;;;;14.40;4.53;;;;;;;;;;5004571;28;20030;-25
2023/03/15 02:10:12;;;;;;;13.40;4.50;;;;;;;;;;5009672;28;20033;-29
2023/03/15 02:12:41;;;;;;;10.43;3.97;;;;;;;;;;5007192;28;20040;-29
2023/03/15 02:15:10;;;;;;;9.30;3.80;;;;;;;;;;5008218;28;20053;-26
2023/03/15 02:17:39;;;;;;;12.65;3.70;;;;;;;;;;5009528;28;20124;-27
2023/03/15 02:20:11;;;;;;;9.02;3.63;;;;;;;;;;5010158;28;20040;-25
2023/03/15 02:22:54;;;;;;;8.63;3.03;;;;;;;;;;5007015;28;20022;-25
2023/03/15 02:25:20;;;;;;;;;;;;;;;;;;5009563;28;20037;-25
2023/03/15 02:27:47;;;;;;;12.95;3.63;;;;;;;;;;5010078;28;20371;-25
2023/03/15 02:30:14;;;;;;;7.55;3.05;;;;;;;;;;5010049;28;20041;-25
2023/03/15 02:32:41;;;;;;;7.55;3.10;;;;;;;;;;5007934;28;20033;-25
2023/03/15 02:35:09;;;;;;;10.57;3.20;;;;;;;;;;5011573;28;20034;-25
2023/03/15 02:37:36;;;;;;;7.00;2.88;;;;;;;;;;5008285;28;20424;-28
2023/03/15 02:40:04;;;;;;;11.40;2.55;;;;;;;;;;5012039;28;20034;-28
2023/03/15 02:42:31;;;;;;;7.43;2.42;;;;;;;;;;5014980;28;20036;-28
2023/03/15 02:44:58;;;;;;;7.60;2.70;;;;;;;;;;5015136;28;20034;-28
2023/03/15 02:47:27;;;;;;;6.68;2.88;;;;;;;;;;5015085;28;20041;-28
2023/03/15 02:49:54;;;;;;;12.02;3.00;;;;;;;;;;5015023;28;20484;-28
2023/03/15 02:52:22;;;;;;;7.75;2.50;;;;;;;;;;5015028;28;20040;-29
2023/03/15 02:54:49;;;;;;;8.35;2.40;;;;;;;;;;5014947;28;20038;-28
2023/03/15 02:57:18;;;;;;;7.13;2.63;;;;;;;;;;5014999;28;20030;-28
2023/03/15 02:59:45;;;;;;;5.75;2.35;;;;;;;;;;5014973;28;20595;-28
2023/03/15 03:02:12;;;;;;;5.80;2.30;;;;;;;;;;5014902;28;20038;-28
2023/03/15 03:04:40;;;;;;;5.20;2.40;;;;;;;;;;5014825;28;20032;-29
2023/03/15 03:07:07;;;;;;;6.45;2.30;;;;;;;;;;5014894;28;20439;-28
2023/03/15 03:09:34;;;;;;;8.27;2.55;;;;;;;;;;5014533;28;20064;-28
2023/03/15 03:12:01;;;;;;;4.60;2.30;;;;;;;;;;5014732;28;20488;-29
2023/03/15 03:14:30;;;;;;;6.43;2.28;;;;;;;;;;5014520;28;20041;-28
2023/03/15 03:16:57;;;;;;;4.47;2.20;;;;;;;;;;5013209;28;20044;-29
2023/03/15 03:19:24;;;;;;;6.75;1.80;;;;;;;;;;5014533;28;20047;-28
2023/03/15 03:21:55;;;;;;;4.90;1.95;;;;;;;;;;5014506;28;20484;-28
2023/03/15 03:24:24;;;;;;;4.35;2.03;;;;;;;;;;5014465;28;20033;-28
2023/03/15 03:26:56;;;;;;;4.05;1.80;;;;;;;;;;5014260;28;20037;-28
2023/03/15 03:29:24;;;;;;;3.88;1.80;;;;;;;;;;5014130;28;20038;-28
2023/03/15 03:31:51;;;;;;;5.85;1.90;;;;;;;;;;5014345;28;20126;-30
2023/03/15 03:34:18;;;;;;;3.22;1.60;;;;;;;;;;5014285;28;20467;-29
2023/03/15 03:36:46;;;;;;;6.00;1.80;;;;;;;;;;5014290;28;20099;-28
2023/03/15 03:39:14;;;;;;;3.33;1.80;;;;;;;;;;5014025;28;20045;-29
2023/03/15 03:41:41;;;;;;;5.65;2.00;;;;;;;;;;5014104;28;20530;-28
2023/03/15 03:44:08;;;;;;;3.97;1.65;;;;;;;;;;5014160;28;20033;-31
2023/03/15 03:46:35;;;;;;;4.97;2.10;;;;;;;;;;5006126;28;20030;-25
2023/03/15 03:49:02;;;;;;;3.25;1.88;;;;;;;;;;5001653;28;20038;-28
2023/03/15 03:51:32;;;;;;;3.97;1.80;;;;;;;;;;5002017;28;20062;-25
2023/03/15 03:54:00;;;;;;;3.80;1.80;;;;;;;;;;5002723;28;20079;-25
2023/03/15 03:56:27;;;;;;;3.85;1.98;;;;;;;;;;5004724;28;20364;-29
2023/03/15 03:58:54;;;;;;;2.70;1.83;;;;;;;;;;5003053;28;20457;-28
2023/03/15 04:01:21;;;;;;;2.72;1.55;;;;;;;;;;5002862;28;20034;-26
2023/03/15 04:03:50;;;;;;;2.28;1.50;;;;;;;;;;5002166;28;20052;-25
2023/03/15 04:06:17;;;;;;;2.95;1.60;;;;;;;;;;5009288;28;20037;-25
2023/03/15 04:08:43;;;;;;;3.97;1.50;;;;;;;;;;5008111;28;20209;-29
2023/03/15 04:11:10;;;;;;;4.40;1.60;;;;;;;;;;5012943;28;20487;-26
2023/03/15 04:13:37;;;;;;;4.60;1.80;;;;;;;;;;5012791;28;20025;-29
2023/03/15 04:16:05;;;;;;;3.58;1.88;;;;;;;;;;5010226;28;20038;-26
2023/03/15 04:18:32;;;;;;;4.68;1.63;;;;;;;;;;5012709;28;20056;-26
2023/03/15 04:20:59;;;;;;;3.35;1.70;;;;;;;;;;5006389;28;20929;-29
2023/03/15 04:23:26;;;;;;;2.92;1.60;;;;;;;;;;5002900;28;20039;-30
2023/03/15 04:25:54;;;;;;;2.67;1.60;;;;;;;;;;5001931;28;20538;-29
2023/03/15 04:28:21;;;;;;;2.47;1.42;;;;;;;;;;5003413;28;20440;-25
2023/03/15 04:30:49;;;;;;;3.35;1.70;;;;;;;;;;5008229;28;20124;-26
2023/03/15 04:33:16;;;;;;;2.60;1.80;;;;;;;;;;5012648;28;20558;-25
2023/03/15 04:35:43;;;;;;;4.18;1.90;;;;;;;;;;5012866;28;20038;-26
2023/03/15 04:38:10;;;;;;;3.67;2.00;;;;;;;;;;5012979;28;20026;-25
2023/03/15 04:40:37;;;;;;;4.07;1.90;;;;;;;;;;5013080;28;20038;-26
2023/03/15 04:43:05;;;;;;;2.30;1.80;;;;;;;;;;5012902;28;20042;-26
2023/03/15 04:45:32;;;;;;;5.75;2.00;;;;;;;;;;5013022;28;20030;-27
2023/03/15 04:48:00;;;;;;;2.63;1.90;;;;;;;;;;5012821;28;20441;-25
2023/03/15 04:50:27;;;;;;;3.22;1.92;;;;;;;;;;5012822;28;20487;-26
2023/03/15 04:52:57;;;;;;;1.88;1.65;;;;;;;;;;5012854;28;20033;-26
2023/03/15 04:55:24;;;;;;;2.00;1.80;;;;;;;;;;5012699;28;20026;-26
2023/03/15 04:57:51;;;;;;;2.33;1.67;;;;;;;;;;5012735;28;20461;-26
2023/03/15 05:00:18;;;;;;;1.80;1.50;;;;;;;;;;5012701;28;20030;-25
2023/03/15 05:02:50;;;;;;;2.83;1.90;;;;;;;;;;5012463;28;20025;-27
2023/03/15 05:05:18;;;;;;;2.65;1.80;;;;;;;;;;5012548;28;20066;-26
2023/03/15 05:07:44;;;;;;;2.35;1.52;;;;;;;;;;5012392;28;20053;-25
2023/03/15 05:10:12;;;;;;;1.95;1.67;;;;;;;;;;5012426;28;20033;-25
2023/03/15 05:12:39;;;;;;;3.25;1.90;;;;;;;;;;5012541;28;20116;-25
2023/03/15 05:15:06;;;;;;;2.90;1.88;;;;;;;;;;5012294;28;20050;-25
2023/03/15 05:17:33;;;;;;;2.50;1.67;;;;;;;;;;5012353;28;20050;-25
2023/03/15 05:20:00;;;;;;;2.22;1.65;;;;;;;;;;5012486;28;20470;-25
2023/03/15 05:22:28;;;;;;;1.60;1.50;;;;;;;;;;5012119;28;20044;-31
2023/03/15 05:24:55;;;;;;;3.00;1.90;;;;;;;;;;5012333;28;20018;-29
2023/03/15 05:27:22;;;;;;;3.33;1.80;;;;;;;;;;5012189;28;20026;-28
2023/03/15 05:29:50;;;;;;;2.72;1.80;;;;;;;;;;5012057;28;20038;-29
2023/03/15 05:32:17;;;;;;;5.07;2.40;;;;;;;;;;5011950;28;21246;-29
2023/03/15 05:34:44;;;;;;;2.33;1.90;;;;;;;;;;5012186;28;20030;-28
2023/03/15 05:37:11;;;;;;;2.55;1.75;;;;;;;;;;5012081;28;20072;-28
2023/03/15 05:39:38;;;;;;;1.77;1.60;;;;;;;;;;5012176;28;20041;-28
2023/03/15 05:42:05;;;;;;;1.88;1.50;;;;;;;;;;5011946;28;20479;-28
2023/03/15 05:44:32;;;;;;;2.28;1.63;;;;;;;;;;5010735;28;20045;-29
2023/03/15 05:46:59;;;;;;;3.55;1.77;;;;;;;;;;5012198;28;20511;-29
2023/03/15 05:49:26;;;;;;;3.20;2.20;;;;;;;;;;5011841;28;20030;-28
2023/03/15 05:51:53;;;;;;;2.25;1.80;;;;;;;;;;5012023;28;20029;-30
2023/03/15 05:54:20;;;;;;;2.47;2.20;;;;;;;;;;5012034;28;20105;-29
2023/03/15 05:56:46;;;;;;;2.13;1.90;;;;;;;;;;5011913;28;20476;-29
2023/03/15 05:59:13;;;;;;;2.13;1.77;;;;;;;;;;5011830;28;20026;-28
2023/03/15 06:01:40;;;;;;;2.10;1.77;;;;;;;;;;5009879;28;20553;-29
2023/03/15 06:04:07;;;;;;;2.00;1.80;;;;;;;;;;5011874;28;20025;-28
2023/03/15 06:06:34;;;;;;;3.25;1.80;;;;;;;;;;5011906;28;20025;-28
2023/03/15 06:09:01;;;;;;;2.65;1.98;;;;;;;;;;5011515;28;20080;-29
2023/03/15 06:11:28;;;;;;;3.08;1.83;;;;;;;;;;5011854;28;20030;-29
2023/03/15 06:13:55;;;;;;;2.40;1.75;;;;;;;;;;5011688;28;20092;-28
2023/03/15 06:16:22;;;;;;;2.20;1.98;;;;;;;;;;5014104;28;20022;-30
2023/03/15 06:18:49;;;;;;;2.83;1.80;;;;;;;;;;5015725;28;20104;-28
2023/03/15 06:21:17;;;;;;;3.15;1.70;;;;;;;;;;5015548;28;20375;-29
2023/03/15 06:23:43;;;;;;;1.70;1.58;;;;;;;;;;5015711;28;20033;-30
2023/03/15 06:26:10;;;;;;;1.70;1.50;;;;;;;;;;5015619;28;20085;-28
2023/03/15 06:28:37;;;;;;;2.58;1.75;;;;;;;;;;5015443;28;20423;-28
2023/03/15 06:31:08;;;;;;;2.60;1.85;;;;;;;;;;5015262;28;20500;-30
2023/03/15 06:33:35;;;;;;;5.00;2.00;;;;;;;;;;5015505;28;20022;-28
2023/03/15 06:36:02;;;;;;;2.72;2.00;;;;;;;;;;5015478;28;20046;-29
2023/03/15 06:38:30;;;;;;;2.85;2.22;;;;;;;;;;5015369;28;20018;-28
2023/03/15 06:40:59;;;;;;;3.03;2.50;;;;;;;;;;5015230;28;20077;-28
2023/03/15 06:43:27;;;;;;;3.17;2.40;;;;;;;;;;5015147;28;20395;-28
2023/03/15 06:45:55;;;;;;;5.57;2.50;;;;;;;;;;5015226;28;20188;-30
2023/03/15 06:48:22;;;;;;;3.17;2.40;;;;;;;;;;5015079;28;20080;-28
2023/03/15 06:50:49;;;;;;;3.60;2.50;;;;;;;;;;5015107;28;20034;-28
2023/03/15 06:53:16;;;;;;;2.70;2.17;;;;;;;;;;5015118;28;20325;-28
2023/03/15 06:55:43;;;;;;;3.63;2.50;;;;;;;;;;5014948;28;20025;-28
2023/03/15 06:58:11;;;;;;;4.38;2.60;;;;;;;;;;5014954;28;20022;-28
2023/03/15 07:00:38;;;;;;;5.28;2.50;;;;;;;;;;5015002;28;20046;-29
2023/03/15 07:03:05;;;;;;;6.47;2.40;;;;;;;;;;5015013;28;20033;-28
2023/03/15 07:05:32;;;;;;;3.30;2.38;;;;;;;;;;5147304;22;20415;-25
2023/03/15 07:07:59;;;;;;;3.05;2.58;;;;;;;;;;5034975;28;20385;-26
2023/03/15 07:10:26;;;;;;;3.25;2.10;;;;;;;;;;5054496;28;20052;-25
2023/03/15 07:12:53;;;;;;;3.45;2.10;;;;;;;;;;5054490;28;20490;-25
2023/03/15 07:15:20;;;;;;;3.22;2.50;;;;;;;;;;5054047;28;20482;-25
2023/03/15 07:17:47;;;;;;;3.60;2.30;;;;;;;;;;5054429;28;20104;-25
2023/03/15 07:23:20;;;;;;;2.85;2.33;;;;;;;;;;5016360;28;20032;-25
2023/03/15 07:25:48;;;;;;;2.78;2.58;;;;;;;;;;5054088;28;20025;-25
2023/03/15 07:31:18;;;;;;;3.22;2.20;;;;;;;;;;5054192;28;20041;-25
2023/03/15 07:33:45;;;;;;;2.95;2.25;;;;;;;;;;5054114;28;20364;-26
2023/03/15 07:36:12;;;;;;;2.33;2.10;;;;;;;;;;5054065;28;20021;-25
2023/03/15 07:38:40;;;;;;;2.88;2.35;;;;;;;;;;5053941;28;20025;-28
2023/03/15 07:41:07;;;;;;;2.88;2.45;;;;;;;;;;5053919;28;20461;-27
2023/03/15 07:43:34;;;;;;;2.92;2.40;;;;;;;;;;5053939;28;20417;-25
2023/03/15 07:46:02;;;;;;;2.88;2.30;;;;;;;;;;5053763;28;20098;-25
2023/03/15 07:48:30;;;;;;;3.90;2.17;;;;;;;;;;5053615;28;20040;-25
2023/03/15 07:50:57;;;;;;;2.72;2.15;;;;;;;;;;5053793;28;20046;-28
2023/03/15 07:53:24;;;;;;;3.67;2.50;;;;;;;;;;5053563;28;20036;-30
2023/03/15 07:55:51;;;;;;;4.45;2.63;;;;;;;;;;5053591;28;20031;-27
2023/03/15 07:58:18;;;;;;;3.88;2.40;;;;;;;;;;5053416;28;20021;-30
2023/03/15 08:00:45;;;;;;;3.83;2.58;;;;;;;;;;5053555;28;20044;-28
2023/03/15 08:03:12;;;;;;;3.72;2.60;;;;;;;;;;5053557;28;20070;-28
2023/03/15 08:05:39;;;;;;;2.85;2.65;;;;;;;;;;5053178;28;20049;-31
2023/03/15 08:08:06;;;;;;;2.75;2.40;;;;;;;;;;5035491;28;20121;-28
2023/03/15 08:10:33;;;;;;;4.80;2.42;;;;;;;;;;5053173;28;20100;-28
2023/03/15 08:13:00;;;;;;;2.70;2.30;;;;;;;;;;5053355;28;20025;-28
2023/03/15 08:15:27;;;;;;;2.90;2.58;;;;;;;;;;5053343;28;20658;-30
2023/03/15 08:17:54;;;;;;;2.85;2.25;;;;;;;;;;5053146;28;20028;-29
2023/03/15 08:20:21;;;;;;;3.95;2.58;;;;;;;;;;5053111;28;20033;-28
2023/03/15 08:22:49;;;;;;;3.38;2.45;;;;;;;;;;5035187;28;20033;-30
2023/03/15 08:25:18;;;;;;;3.88;2.50;;;;;;;;;;5053082;28;20021;-31
2023/03/15 08:27:45;;;;;;;2.83;2.13;;;;;;;;;;5053013;28;20025;-30
2023/03/15 08:30:13;;;;;;;2.33;2.13;;;;;;;;;;5052729;28;20029;-31
2023/03/15 08:32:40;;;;;;;2.33;2.00;;;;;;;;;;5052930;28;20155;-30
2023/03/15 08:35:08;;;;;;;2.63;1.90;;;;;;;;;;5052919;28;20024;-33
2023/03/15 08:37:34;;;;;;;2.08;1.88;;;;;;;;;;5052589;28;20029;-30
2023/03/15 08:40:08;;;;;;;4.85;2.30;;;;;;;;;;5052467;28;20475;-30
2023/03/15 08:42:36;;;;;;;3.58;2.60;;;;;;;;;;5052643;28;20057;-34
2023/03/15 08:45:06;;;;;;;4.07;2.83;;;;;;;;;;5052705;28;20021;-30
2023/03/15 08:47:37;;;;;;;3.25;2.53;;;;;;;;;;5052713;28;20037;-30
2023/03/15 08:50:04;;;;;;;2.60;2.40;;;;;;;;;;5052513;28;20410;-30
2023/03/15 08:52:32;;;;;;;2.53;2.33;;;;;;;;;;5052386;28;20540;-30
2023/03/15 08:54:59;;;;;;;2.70;2.50;;;;;;;;;;5052423;28;20368;-31
2023/03/15 08:57:27;;;;;;;2.45;2.20;;;;;;;;;;5052353;28;20032;-29
2023/03/15 08:59:55;;;;;;;2.85;2.58;;;;;;;;;;5052264;28;20033;-28
2023/03/15 09:02:22;;;;;;;2.90;2.60;;;;;;;;;;5052335;28;20047;-28
2023/03/15 09:04:49;;;;;;;3.17;2.40;;;;;;;;;;5052107;28;20021;-28
2023/03/15 09:07:16;;;;;;;5.22;2.60;;;;;;;;;;5052309;28;20028;-31
2023/03/15 09:09:46;;;;;;;6.85;3.00;;;;;;;;;;5052064;28;20033;-28
2023/03/15 09:12:17;;;;;;;3.95;2.63;;;;;;;;;;5052093;28;20071;-28
2023/03/15 09:14:44;;;;;;;2.80;2.50;;;;;;;;;;5052158;28;20119;-29
2023/03/15 09:17:11;;;;;;;2.78;2.47;;;;;;;;;;5052156;28;20027;-29
2023/03/15 09:19:38;;;;;;;5.03;2.70;;;;;;;;;;5052034;28;20036;-28
2023/03/15 09:22:06;;;;;;;6.43;3.33;;;;;;;;;;5051906;28;20029;-29
2023/03/15 09:24:33;;;;;;;5.93;3.65;;;;;;;;;;5051985;28;20359;-28
2023/03/15 09:27:00;;;;;;;5.03;3.08;;;;;;;;;;5051376;28;20095;-25
2023/03/15 09:29:27;;;;;;;4.35;3.20;;;;;;;;;;5051647;28;20017;-26
2023/03/15 09:31:55;;;;;;;4.35;3.00;;;;;;;;;;5051736;28;20029;-25
2023/03/15 09:34:22;;;;;;;5.93;3.28;;;;;;;;;;5051732;28;20231;-28
2023/03/15 09:36:51;;;;;;;4.75;3.25;;;;;;;;;;5051669;28;20033;-28
2023/03/15 09:39:22;;;;;;;7.20;3.50;;;;;;;;;;5047808;28;20030;-25
2023/03/15 09:41:59;;;;;;;6.28;4.03;;;;;;;;;;5049478;28;20020;-28
2023/03/15 09:44:40;;;;;;;11.27;3.75;;;;;;;;;;5051482;28;20029;-28
2023/03/15 09:47:19;;;;;;;5.45;3.55;;;;;;;;;;5051568;28;20021;-28
2023/03/15 09:49:52;;;;;;;5.82;3.53;;;;;;;;;;5050557;28;20029;-29
2023/03/15 09:52:18;;;;;;;;;;;;;;;;;;5034031;28;20387;-29
2023/03/15 09:54:49;;;;;;;8.80;4.35;;;;;;;;;;5051599;28;19954;-29
2023/03/15 09:57:23;;;;;;;5.68;3.90;;;;;;;;;;5051579;28;20048;-29
2023/03/15 09:59:52;;;;;;;4.35;3.63;;;;;;;;;;5051399;28;20021;-28
2023/03/15 10:02:28;;;;;;;4.55;3.67;;;;;;;;;;5051492;28;20466;-30
2023/03/15 10:04:58;;;;;;;5.85;3.65;;;;;;;;;;5051369;28;20071;-30
2023/03/15 10:07:25;;;;;;;4.57;3.10;;;;;;;;;;5051495;28;20032;-28
2023/03/15 10:09:52;;;;;;;6.47;3.25;;;;;;;;;;5051279;28;20029;-29
2023/03/15 10:12:23;;;;;;;4.72;3.40;;;;;;;;;;5051319;28;20088;-28
2023/03/15 10:14:50;;;;;;;5.97;3.22;;;;;;;;;;5051524;28;20103;-28
2023/03/15 10:17:37;;;;;;;6.55;3.42;;;;;;;;;;5051311;28;20033;-28
2023/03/15 10:20:12;;;;;;;5.13;3.70;;;;;;;;;;5011076;28;20037;-28
2023/03/15 10:22:59;;;;;;;3.75;2.95;;;;;;;;;;5051405;28;20482;-28
2023/03/15 10:25:27;;;;;;;4.63;3.65;;;;;;;;;;5051128;28;20021;-28
2023/03/15 10:27:56;;;;;;;4.80;3.58;;;;;;;;;;5051179;28;20517;-29
2023/03/15 10:30:27;;;;;;;4.13;2.88;;;;;;;;;;5050859;28;20486;-28
2023/03/15 10:33:04;;;;;;;4.22;3.38;;;;;;;;;;5051235;28;20036;-28
2023/03/15 10:35:31;;;;;;;5.13;3.63;;;;;;;;;;5041433;28;20033;-30
2023/03/15 10:37:58;;;;;;;5.28;3.50;;;;;;;;;;5023477;28;20025;-25
2023/03/15 10:40:39;;;;;;;5.25;3.42;;;;;;;;;;5047705;28;20074;-26
2023/03/15 10:43:13;;;;;;;2.95;2.33;;;;;;;;;;5049486;28;20033;-26
2023/03/15 10:45:40;;;;;;;6.70;3.45;;;;;;;;;;5049688;28;20029;-26
2023/03/15 10:48:07;;;;;;;3.90;2.83;;;;;;;;;;5049445;28;20033;-28
2023/03/15 10:50:38;;;;;;;3.75;2.92;;;;;;;;;;5049607;28;20037;-25
2023/03/15 10:53:10;;;;;;;6.57;3.40;;;;;;;;;;5049388;28;20501;-25
2023/03/15 10:55:42;;;;;;;5.00;3.45;;;;;;;;;;5049442;28;20029;-25
2023/03/15 10:58:08;;;;;;;;;;;;;;;;;;5047923;28;20025;-29
2023/03/15 11:00:36;;;;;;;5.40;3.25;;;;;;;;;;5049621;28;20676;-25
2023/03/15 11:03:03;;;;;;;4.57;3.42;;;;;;;;;;5052988;28;20379;-28
2023/03/15 11:05:49;;;;;;;7.03;3.47;;;;;;;;;;5052959;28;20049;-25
2023/03/15 11:08:18;;;;;;;5.13;3.45;;;;;;;;;;5052037;28;20029;-24
2023/03/15 11:10:46;;;;;;;5.45;2.85;;;;;;;;;;5050228;28;20475;-25
2023/03/15 11:13:13;;;;;;;6.97;3.78;;;;;;;;;;5052268;28;20033;-25
2023/03/15 11:15:46;;;;;;;9.75;3.25;;;;;;;;;;5052391;28;20032;-29
2023/03/15 11:18:17;;;;;;;7.50;3.22;;;;;;;;;;5050401;28;20471;-25
2023/03/15 11:20:44;;;;;;;6.88;3.40;;;;;;;;;;5052912;28;20025;-28
2023/03/15 11:23:20;;;;;;;6.18;3.42;;;;;;;;;;5050029;28;20033;-28
2023/03/15 11:25:47;;;;;;;7.45;3.55;;;;;;;;;;5052746;28;20025;-29
2023/03/15 11:28:19;;;;;;;4.13;2.38;;;;;;;;;;5052553;28;20475;-24
2023/03/15 11:30:46;;;;;;;;;;;;;;;;;;5053143;28;20040;-28
2023/03/15 11:33:21;;;;;;;5.78;3.28;;;;;;;;;;5043044;28;20339;-28
2023/03/15 11:35:48;;;;;;;3.78;2.88;;;;;;;;;;5052507;28;20021;-25
2023/03/15 11:38:32;;;;;;;3.97;2.72;;;;;;;;;;5034460;28;20378;-28
2023/03/15 11:41:00;;;;;;;4.25;2.90;;;;;;;;;;5050361;28;20535;-28
2023/03/15 11:43:40;;;;;;;3.88;2.55;;;;;;;;;;5052865;28;20029;-27
2023/03/15 11:46:21;;;;;;;5.63;2.40;;;;;;;;;;5050841;28;20475;-25
2023/03/15 11:48:53;;;;;;;4.15;2.55;;;;;;;;;;5049602;28;20863;-28
2023/03/15 11:51:20;;;;;;;6.95;2.42;;;;;;;;;;5052213;28;20051;-25
2023/03/15 11:53:56;;;;;;;4.47;3.20;;;;;;;;;;5051809;28;20028;-29
2023/03/15 11:56:24;;;;;;;4.03;1.92;;;;;;;;;;5048912;28;20065;-29
2023/03/15 11:59:20;;;;;;;7.63;2.30;;;;;;;;;;5050777;28;20041;-30
2023/03/15 12:01:48;;;;;;;4.60;2.20;;;;;;;;;;5033005;28;20037;-25
2023/03/15 12:04:35;;;;;;;3.80;2.42;;;;;;;;;;5037529;28;20035;-25
2023/03/15 12:07:07;;;;;;;6.10;2.30;;;;;;;;;;5042028;28;20041;-28
2023/03/15 12:09:37;;;;;;;4.18;2.45;;;;;;;;;;5051410;28;20084;-25
2023/03/15 12:12:05;;;;;;;6.97;2.13;;;;;;;;;;5045232;28;20059;-28
2023/03/15 12:14:36;;;;;;;7.30;2.38;;;;;;;;;;5052230;28;20059;-25
2023/03/15 12:17:21;;;;;;;7.60;2.10;;;;;;;;;;5053101;28;20104;-25
2023/03/15 12:19:57;;;;;;;5.45;1.90;;;;;;;;;;5052928;28;20021;-25
2023/03/15 12:22:24;;;;;;;3.08;2.08;;;;;;;;;;5053000;28;20108;-25
2023/03/15 12:24:51;;;;;;;4.18;2.00;;;;;;;;;;5053161;28;20031;-25
2023/03/15 12:27:20;;;;;;;4.55;2.15;;;;;;;;;;5053076;28;20116;-25
2023/03/15 12:29:49;;;;;;;5.65;2.13;;;;;;;;;;5052897;28;20043;-25
2023/03/15 12:32:17;;;;;;;3.75;2.10;;;;;;;;;;5052825;28;20036;-25
2023/03/15 12:34:54;;;;;;;4.63;2.10;;;;;;;;;;5052887;28;20048;-25
2023/03/15 12:37:21;;;;;;;5.85;2.03;;;;;;;;;;5052754;28;20032;-25
2023/03/15 12:39:59;;;;;;;4.95;2.40;;;;;;;;;;5034828;28;20087;-25
2023/03/15 12:42:31;;;;;;;3.22;2.08;;;;;;;;;;5052838;28;20025;-25
2023/03/15 12:45:19;;;;;;;7.95;2.17;;;;;;;;;;5052775;28;20032;-25
2023/03/15 12:47:47;;;;;;;7.28;2.08;;;;;;;;;;5052549;28;20390;-25
2023/03/15 12:50:32;;;;;;;5.97;2.00;;;;;;;;;;5052425;28;20135;-25
2023/03/15 12:53:00;;;;;;;5.35;2.05;;;;;;;;;;5052655;28;20032;-25
2023/03/15 12:55:34;;;;;;;4.15;2.00;;;;;;;;;;5052622;28;20100;-25
2023/03/15 12:58:03;;;;;;;3.45;2.05;;;;;;;;;;5052409;28;20025;-25
2023/03/15 13:00:31;;;;;;;5.68;1.90;;;;;;;;;;5052409;28;20159;-25
2023/03/15 13:03:17;;;;;;;3.75;1.98;;;;;;;;;;5052258;28;20029;-25
2023/03/15 13:05:52;;;;;;;3.30;2.00;;;;;;;;;;5051985;28;20049;-25
2023/03/15 13:08:30;;;;;;;5.80;1.95;;;;;;;;;;5052198;28;20100;-25
2023/03/15 13:11:26;;;;;;;5.03;2.00;;;;;;;;;;5052227;28;20056;-25
2023/03/15 13:13:53;;;;;;;3.05;1.80;;;;;;;;;;5039261;28;20033;-27
2023/03/15 13:16:43;;;;;;;4.65;2.15;;;;;;;;;;5052187;28;20131;-25
2023/03/15 13:19:16;;;;;;;4.28;1.90;;;;;;;;;;5052021;28;20061;-27
2023/03/15 13:21:48;;;;;;;3.25;2.00;;;;;;;;;;5051974;28;20037;-25
2023/03/15 13:24:23;;;;;;;3.80;1.98;;;;;;;;;;5052053;28;20505;-27
2023/03/15 13:27:03;;;;;;;5.50;1.80;;;;;;;;;;5051990;28;20021;-25
2023/03/15 13:29:32;;;;;;;3.17;2.03;;;;;;;;;;5051769;28;20041;-25
2023/03/15 13:32:12;;;;;;;4.20;1.90;;;;;;;;;;5051778;28;20029;-25
2023/03/15 13:34:40;;;;;;;5.30;2.08;;;;;;;;;;5051887;28;20021;-25
2023/03/15 13:37:13;;;;;;;6.60;1.90;;;;;;;;;;5051787;28;20036;-25
2023/03/15 13:39:51;;;;;;;3.08;1.83;;;;;;;;;;5051565;28;20036;-26
2023/03/15 13:42:19;;;;;;;4.85;1.98;;;;;;;;;;5051766;28;20029;-25
2023/03/15 13:44:46;;;;;;;4.63;1.77;;;;;;;;;;5051704;28;20475;-25
2023/03/15 13:47:23;;;;;;;5.68;1.92;;;;;;;;;;5051697;28;20065;-25
2023/03/15 13:49:52;;;;;;;3.80;1.80;;;;;;;;;;5051709;28;20386;-25
2023/03/15 13:52:19;;;;;;;4.55;1.90;;;;;;;;;;5051605;28;20059;-25
2023/03/15 13:54:46;;;;;;;3.28;2.00;;;;;;;;;;5051524;28;20021;-25
2023/03/15 13:57:15;;;;;;;4.15;2.20;;;;;;;;;;5051598;28;20028;-25
2023/03/15 13:59:47;;;;;;;3.53;2.10;;;;;;;;;;5051301;28;20059;-25
2023/03/15 14:02:17;;;;;;;4.90;1.98;;;;;;;;;;5051583;28;20053;-26
2023/03/15 14:04:48;;;;;;;3.00;1.70;;;;;;;;;;5051648;28;20433;-27
2023/03/15 14:07:25;;;;;;;4.45;1.70;;;;;;;;;;5051588;28;20048;-25
2023/03/15 14:10:26;;;;;;;2.88;1.80;;;;;;;;;;5051321;28;20048;-27
2023/03/15 14:12:54;;;;;;;3.43;1.67;;;;;;;;;;4989777;28;20404;-25
2023/03/15 14:15:35;;;;;;;3.33;1.83;;;;;;;;;;5039712;28;20148;-27
2023/03/15 14:18:08;;;;;;;3.75;1.67;;;;;;;;;;5033330;28;20095;-27
2023/03/15 14:20:41;;;;;;;4.63;2.22;;;;;;;;;;5051380;28;20391;-27
2023/03/15 14:23:07;;;;;;;;;;;;;;;;;;5051780;28;20064;-27
2023/03/15 14:25:35;;;;;;;3.40;1.70;;;;;;;;;;5051354;28;19908;-27
2023/03/15 14:28:03;;;;;;;5.53;1.77;;;;;;;;;;5051048;28;20041;-27
2023/03/15 14:30:32;;;;;;;2.15;1.60;;;;;;;;;;5051264;28;20051;-27
2023/03/15 14:33:03;;;;;;;4.10;1.70;;;;;;;;;;5051438;28;20458;-27
2023/03/15 14:35:50;;;;;;;2.55;1.75;;;;;;;;;;5050997;28;20033;-26
2023/03/15 14:38:18;;;;;;;4.28;1.73;;;;;;;;;;5054937;28;20025;-27
2023/03/15 14:40:45;;;;;;;2.58;1.65;;;;;;;;;;5054973;28;20033;-27
2023/03/15 14:43:12;;;;;;;3.75;1.52;;;;;;;;;;5055144;28;20116;-27
2023/03/15 14:45:40;;;;;;;3.97;1.73;;;;;;;;;;5055035;28;20054;-27
2023/03/15 14:48:11;;;;;;;3.88;1.42;;;;;;;;;;5054889;28;20033;-27
2023/03/15 14:50:39;;;;;;;5.63;1.55;;;;;;;;;;5054950;28;20040;-27
2023/03/15 14:53:07;;;;;;;3.53;1.50;;;;;;;;;;5054795;28;20589;-27
2023/03/15 14:55:35;;;;;;;3.45;1.70;;;;;;;;;;5054818;28;20028;-27
2023/03/15 14:58:04;;;;;;;2.70;1.65;;;;;;;;;;5054659;28;20025;-27
2023/03/15 15:00:32;;;;;;;3.10;1.77;;;;;;;;;;5054612;28;20029;-27
2023/03/15 15:03:00;;;;;;;3.42;1.55;;;;;;;;;;5054752;28;20043;-25